createdAt,value
2018-11-23T00:01:41.541Z,102743.48
2018-11-23T00:04:10.449Z,102744.46
2018-11-23T00:06:38.767Z,102745.73
2018-11-23T00:09:07.087Z,102743.56
2018-11-23T00:11:35.415Z,102738.39
2018-11-23T00:14:03.750Z,102740.52
2018-11-23T00:16:31.512Z,102744.72
2018-11-23T00:18:59.831Z,102743.31
2018-11-23T00:21:28.743Z,102745.31
2018-11-23T00:23:57.075Z,102742.30
2018-11-23T00:26:24.824Z,102739.35
2018-11-23T00:28:53.741Z,102737.45
2018-11-23T00:31:22.064Z,102730.64
2018-11-23T00:33:50.387Z,102736.56
2018-11-23T00:36:18.266Z,102735.87
2018-11-23T00:38:47.046Z,102734.53
2018-11-23T00:41:15.383Z,102733.00
2018-11-23T00:43:43.708Z,102730.41
2018-11-23T00:46:12.043Z,102727.67
2018-11-23T00:48:39.859Z,102727.91
2018-11-23T00:51:08.165Z,102724.51
2018-11-23T00:53:36.501Z,102723.64
2018-11-23T00:56:04.833Z,102721.28
2018-11-23T00:58:33.190Z,102722.64
2018-11-23T01:01:02.677Z,102724.30
2018-11-23T01:03:29.816Z,102722.48
2018-11-23T01:05:58.725Z,102720.17
2018-11-23T01:08:26.471Z,102720.64
2018-11-23T01:10:55.380Z,102719.41
2018-11-23T01:13:23.426Z,102723.78
2018-11-23T01:15:52.326Z,102728.73
2018-11-23T01:18:20.093Z,102727.77
2018-11-23T01:20:48.999Z,102725.27
2018-11-23T01:23:17.330Z,102727.48
2018-11-23T01:25:45.072Z,102727.87
2018-11-23T01:28:13.401Z,102727.69
2018-11-23T01:30:42.304Z,102733.61
2018-11-23T01:33:10.621Z,102733.12
2018-11-23T01:35:38.371Z,102733.56
2018-11-23T01:38:07.267Z,102732.61
2018-11-23T01:40:35.008Z,102729.50
2018-11-23T01:43:03.915Z,102728.02
2018-11-23T01:45:32.265Z,102730.75
2018-11-23T01:48:00.595Z,102729.02
2018-11-23T01:50:28.908Z,102728.68
2018-11-23T01:52:56.676Z,102727.27
2018-11-23T01:55:25.578Z,102726.09
2018-11-23T01:57:53.908Z,102725.79
2018-11-23T02:00:22.233Z,102724.08
2018-11-23T02:02:50.553Z,102716.70
2018-11-23T02:05:18.882Z,102725.23
2018-11-23T02:07:46.634Z,102722.86
2018-11-23T02:10:15.539Z,102722.89
2018-11-23T02:12:43.864Z,102721.94
2018-11-23T02:15:11.613Z,102721.08
2018-11-23T02:17:39.936Z,102721.30
2018-11-23T02:20:08.269Z,102718.44
2018-11-23T02:22:36.597Z,102716.44
2018-11-23T02:25:05.498Z,102718.56
2018-11-23T02:27:33.237Z,102720.67
2018-11-23T02:30:02.145Z,102718.84
2018-11-23T02:32:30.466Z,102722.10
2018-11-23T02:34:58.204Z,102720.12
2018-11-23T02:37:26.557Z,102726.36
2018-11-23T02:39:55.439Z,102729.09
2018-11-23T02:42:23.210Z,102727.15
2018-11-23T02:44:51.532Z,102727.54
2018-11-23T02:47:20.440Z,102724.59
2018-11-23T02:49:48.183Z,102725.81
2018-11-23T02:52:16.516Z,102720.45
2018-11-23T02:54:44.853Z,102716.30
2018-11-23T02:57:13.191Z,102711.52
2018-11-23T02:59:42.096Z,102713.12
2018-11-23T03:02:10.188Z,102712.45
2018-11-23T03:04:38.215Z,102704.59
2018-11-23T03:07:07.109Z,102704.96
2018-11-23T03:09:34.864Z,102702.34
2018-11-23T03:12:03.194Z,102699.16
2018-11-23T03:14:32.096Z,102700.26
2018-11-23T03:17:00.422Z,102699.16
2018-11-23T03:19:28.163Z,102702.19
2018-11-23T03:21:57.071Z,102705.33
2018-11-23T03:24:25.403Z,102705.16
2018-11-23T03:26:53.156Z,102704.69
2018-11-23T03:29:21.477Z,102700.34
2018-11-23T03:31:49.800Z,102704.04
2018-11-23T03:34:18.716Z,102706.52
2018-11-23T03:36:47.031Z,102707.71
2018-11-23T03:39:14.774Z,102710.27
2018-11-23T03:41:43.683Z,102708.78
2018-11-23T03:44:11.453Z,102712.50
2018-11-23T03:46:40.349Z,102714.01
2018-11-23T03:49:08.670Z,102711.55
2018-11-23T03:51:36.424Z,102712.21
2018-11-23T03:54:05.339Z,102717.62
2018-11-23T03:56:33.698Z,102711.66
2018-11-23T03:59:01.450Z,102710.14
2018-11-23T04:01:30.351Z,102706.69
2018-11-23T04:03:58.677Z,102704.59
2018-11-23T04:06:27.013Z,102699.09
2018-11-23T04:08:55.342Z,102701.64
2018-11-23T04:11:23.088Z,102698.92
2018-11-23T04:13:52.238Z,102700.87
2018-11-23T04:16:19.989Z,102698.78
2018-11-23T04:18:48.883Z,102696.55
2018-11-23T04:21:16.622Z,102696.47
2018-11-23T04:23:44.949Z,102693.30
2018-11-23T04:26:13.855Z,102689.20
2018-11-23T04:28:42.184Z,102692.43
2018-11-23T04:31:09.930Z,102687.58
2018-11-23T04:33:38.825Z,102683.41
2018-11-23T04:36:06.584Z,102693.36
2018-11-23T04:38:34.899Z,102691.48
2018-11-23T04:41:03.803Z,102693.25
2018-11-23T04:43:32.140Z,102695.52
2018-11-23T04:45:59.961Z,102697.73
2018-11-23T04:48:28.798Z,102693.45
2018-11-23T04:50:57.126Z,102689.82
2018-11-23T04:53:25.440Z,102692.02
2018-11-23T04:55:53.851Z,102692.22
2018-11-23T04:58:22.212Z,102687.48
2018-11-23T05:00:50.533Z,102687.75
2018-11-23T05:03:18.854Z,102683.23
2018-11-23T05:05:47.166Z,102684.06
2018-11-23T05:08:14.917Z,102690.56
2018-11-23T05:10:43.818Z,102686.78
2018-11-23T05:13:12.147Z,102686.87
2018-11-23T05:15:40.472Z,102686.12
2018-11-23T05:18:08.791Z,102683.70
2018-11-23T05:20:37.110Z,102687.32
2018-11-23T05:23:05.430Z,102689.08
2018-11-23T05:25:33.755Z,102686.36
2018-11-23T05:28:01.497Z,102681.25
2018-11-23T05:30:30.399Z,102679.70
2018-11-23T05:32:58.736Z,102676.21
2018-11-23T05:35:27.062Z,102673.26
2018-11-23T05:37:54.803Z,102673.16
2018-11-23T05:40:23.124Z,102669.61
2018-11-23T05:42:52.037Z,102666.55
2018-11-23T05:45:20.359Z,102664.98
2018-11-23T05:47:48.672Z,102665.22
2018-11-23T05:50:16.414Z,102664.10
2018-11-23T05:52:45.327Z,102665.13
2018-11-23T05:55:13.636Z,102663.38
2018-11-23T05:57:41.378Z,102673.17
2018-11-23T06:00:09.836Z,102668.84
2018-11-23T06:02:38.643Z,102668.61
2018-11-23T06:05:06.967Z,102668.78
2018-11-23T06:07:34.724Z,102665.84
2018-11-23T06:10:03.060Z,102657.88
2018-11-23T06:12:31.475Z,102662.41
2018-11-23T06:14:59.798Z,102663.51
2018-11-23T06:17:28.706Z,102663.41
2018-11-23T06:19:57.019Z,102667.44
2018-11-23T06:22:24.768Z,102673.45
2018-11-23T06:24:54.407Z,102674.81
2018-11-23T06:27:21.471Z,102674.63
2018-11-23T06:29:50.410Z,102673.16
2018-11-23T06:32:18.711Z,102672.91
2018-11-23T06:34:46.677Z,102674.83
2018-11-23T06:37:15.358Z,102678.25
2018-11-23T06:39:43.105Z,102675.51
2018-11-23T06:42:11.467Z,102676.73
2018-11-23T06:44:39.749Z,102673.36
2018-11-23T06:47:08.657Z,102669.83
2018-11-23T06:49:36.987Z,102668.91
2018-11-23T06:52:04.732Z,102671.03
2018-11-23T06:54:33.570Z,102672.59
2018-11-23T06:57:01.889Z,102676.03
2018-11-23T06:59:30.213Z,102679.58
2018-11-23T07:01:59.149Z,102677.83
2018-11-23T07:04:26.890Z,102678.51
2018-11-23T07:06:55.798Z,102689.56
2018-11-23T07:09:23.987Z,102685.80
2018-11-23T07:11:52.454Z,102693.94
2018-11-23T07:14:20.772Z,102694.42
2018-11-23T07:16:48.522Z,102696.71
2018-11-23T07:19:17.432Z,102693.27
2018-11-23T07:21:45.765Z,102695.94
2018-11-23T07:24:14.101Z,102697.75
2018-11-23T07:26:41.884Z,102699.25
2018-11-23T07:29:10.768Z,102693.12
2018-11-23T07:31:38.513Z,102692.86
2018-11-23T07:34:07.424Z,102698.17
2018-11-23T07:36:35.738Z,102697.20
2018-11-23T07:39:03.481Z,102689.29
2018-11-23T07:41:40.899Z,102691.07
2018-11-23T07:44:08.691Z,102693.50
2018-11-23T07:46:37.592Z,102695.59
2018-11-23T07:49:05.915Z,102692.20
2018-11-23T07:51:39.047Z,102694.83
2018-11-23T07:54:02.564Z,102691.86
2018-11-23T07:56:30.887Z,102693.52
2018-11-23T07:58:59.224Z,102698.36
2018-11-23T08:01:26.967Z,102696.96
2018-11-23T08:03:55.897Z,102702.16
2018-11-23T08:06:23.868Z,102704.41
2018-11-23T08:08:52.550Z,102700.67
2018-11-23T08:11:20.880Z,102701.95
2018-11-23T08:13:49.246Z,102700.21
2018-11-23T08:16:17.049Z,102701.27
2018-11-23T08:18:45.963Z,102695.73
2018-11-23T08:21:14.590Z,102691.92
2018-11-23T08:23:43.097Z,102695.31
2018-11-23T08:26:11.423Z,102696.14
2018-11-23T08:28:39.749Z,102689.08
2018-11-23T08:31:07.622Z,102692.96
2018-11-23T08:33:35.870Z,102692.13
2018-11-23T08:36:04.866Z,102701.44
2018-11-23T08:38:33.680Z,102695.86
2018-11-23T08:41:02.272Z,102698.93
2018-11-23T08:43:30.603Z,102696.59
2018-11-23T08:45:59.804Z,102692.62
2018-11-23T08:48:28.373Z,102697.42
2018-11-23T08:50:56.346Z,102688.69
2018-11-23T08:53:27.944Z,102691.54
2018-11-23T08:55:53.973Z,102693.30
2018-11-23T08:58:21.748Z,102687.66
2018-11-23T09:00:50.077Z,102685.36
2018-11-23T09:03:20.366Z,102681.09
2018-11-23T09:05:49.686Z,102686.68
2018-11-23T09:08:19.148Z,102683.61
2018-11-23T09:10:48.023Z,102679.72
2018-11-23T09:13:17.155Z,102682.44
2018-11-23T09:15:46.373Z,102686.29
2018-11-23T09:18:14.522Z,102683.25
2018-11-23T09:20:43.784Z,102681.83
2018-11-23T09:23:12.734Z,102685.84
2018-11-23T09:25:41.064Z,102682.92
2018-11-23T09:28:11.179Z,102681.47
2018-11-23T09:30:39.573Z,102675.67
2018-11-23T09:33:08.138Z,102678.45
2018-11-23T09:35:37.274Z,102681.62
2018-11-23T09:38:05.780Z,102675.16
2018-11-23T09:40:34.334Z,102668.88
2018-11-23T09:43:03.799Z,102661.61
2018-11-23T09:45:32.324Z,102658.88
2018-11-23T09:48:00.082Z,102654.31
2018-11-23T09:50:29.698Z,102655.08
2018-11-23T09:52:57.510Z,102652.53
2018-11-23T09:55:26.345Z,102649.05
2018-11-23T09:57:54.767Z,102648.85
2018-11-23T10:00:23.067Z,102649.61
2018-11-23T10:02:50.838Z,102647.27
2018-11-23T10:05:19.768Z,102642.78
2018-11-23T10:07:47.566Z,102639.33
2018-11-23T10:10:16.473Z,102638.88
2018-11-23T10:12:44.350Z,102641.56
2018-11-23T10:15:14.146Z,102638.91
2018-11-23T10:17:42.080Z,102632.98
2018-11-23T10:20:11.954Z,102636.25
2018-11-23T10:22:40.524Z,102637.53
2018-11-23T10:25:08.799Z,102636.91
2018-11-23T10:27:37.151Z,102631.98
2018-11-23T10:30:04.888Z,102631.08
2018-11-23T10:32:33.814Z,102632.02
2018-11-23T10:35:02.163Z,102628.97
2018-11-23T10:37:30.491Z,102624.95
2018-11-23T10:39:58.826Z,102622.42
2018-11-23T10:42:27.190Z,102620.42
2018-11-23T10:44:55.515Z,102617.84
2018-11-23T10:47:23.846Z,102613.02
2018-11-23T10:49:52.184Z,102612.78
2018-11-23T10:52:19.936Z,102612.92
2018-11-23T10:54:48.263Z,102613.28
2018-11-23T10:57:17.172Z,102607.44
2018-11-23T10:59:45.520Z,102604.34
2018-11-23T11:02:13.254Z,102600.01
2018-11-23T11:04:41.596Z,102593.69
2018-11-23T11:07:10.538Z,102589.34
2018-11-23T11:09:39.547Z,102592.45
2018-11-23T11:12:07.536Z,102589.20
2018-11-23T11:14:35.657Z,102586.38
2018-11-23T11:17:03.648Z,102586.23
2018-11-23T11:19:32.539Z,102582.63
2018-11-23T11:22:00.903Z,102582.28
2018-11-23T11:24:28.649Z,102579.95
2018-11-23T11:26:57.219Z,102581.60
2018-11-23T11:29:25.884Z,102580.22
2018-11-23T11:31:54.282Z,102579.71
2018-11-23T11:34:22.031Z,102578.77
2018-11-23T11:36:50.387Z,102575.61
2018-11-23T11:39:19.281Z,102575.86
2018-11-23T11:41:47.595Z,102570.40
2018-11-23T11:44:15.343Z,102565.93
2018-11-23T11:46:44.274Z,102568.63
2018-11-23T11:49:12.603Z,102570.31
2018-11-23T11:51:41.093Z,102568.95
2018-11-23T11:54:09.347Z,102561.59
2018-11-23T11:56:37.721Z,102560.33
2018-11-23T11:59:06.072Z,102556.05
2018-11-23T12:01:35.168Z,102556.21
2018-11-23T12:04:03.506Z,102556.53
2018-11-23T12:06:31.238Z,102553.23
2018-11-23T12:09:00.457Z,102552.72
2018-11-23T12:11:28.253Z,102546.63
2018-11-23T12:13:57.173Z,102545.23
2018-11-23T12:16:25.004Z,102546.16
2018-11-23T12:18:54.365Z,102540.52
2018-11-23T12:21:22.605Z,102538.19
2018-11-23T12:23:50.701Z,102534.56
2018-11-23T12:26:18.453Z,102533.73
2018-11-23T12:28:46.795Z,102528.52
2018-11-23T12:31:15.680Z,102520.77
2018-11-23T12:33:44.073Z,102518.11
2018-11-23T12:36:12.405Z,102518.77
2018-11-23T12:38:42.971Z,102515.09
2018-11-23T12:41:09.060Z,102516.62
2018-11-23T12:43:37.410Z,102515.87
2018-11-23T12:46:05.947Z,102511.68
2018-11-23T12:48:34.058Z,102507.03
2018-11-23T12:51:02.391Z,102503.31
2018-11-23T12:53:30.147Z,102502.78
2018-11-23T12:55:59.072Z,102500.13
2018-11-23T12:58:26.817Z,102497.92
2018-11-23T13:00:55.722Z,102498.86
2018-11-23T13:03:24.045Z,102495.85
2018-11-23T13:05:52.366Z,102497.47
2018-11-23T13:08:20.141Z,102492.71
2018-11-23T13:10:48.428Z,102493.07
2018-11-23T13:13:16.753Z,102494.47
2018-11-23T13:15:46.625Z,102492.39
2018-11-23T13:18:14.252Z,102489.59
2018-11-23T13:20:42.582Z,102487.14
2018-11-23T13:23:10.329Z,102481.10
2018-11-23T13:25:39.244Z,102473.35
2018-11-23T13:28:07.613Z,102470.05
2018-11-23T13:30:35.926Z,102470.64
2018-11-23T13:33:04.267Z,102464.03
2018-11-23T13:35:32.020Z,102459.34
2018-11-23T13:38:00.720Z,102458.95
2018-11-23T13:40:29.641Z,102460.73
2018-11-23T13:42:57.967Z,102459.21
2018-11-23T13:45:26.308Z,102464.88
2018-11-23T13:47:54.623Z,102461.55
2018-11-23T13:50:22.970Z,102457.37
2018-11-23T13:52:51.140Z,102461.89
2018-11-23T13:55:19.473Z,102458.39
2018-11-23T13:57:48.550Z,102459.96
2018-11-23T14:00:17.454Z,102457.39
2018-11-23T14:02:45.222Z,102458.57
2018-11-23T14:05:14.130Z,102457.40
2018-11-23T14:07:42.455Z,102450.13
2018-11-23T14:10:10.784Z,102444.91
2018-11-23T14:12:39.120Z,102444.09
2018-11-23T14:15:07.455Z,102439.28
2018-11-23T14:17:35.784Z,102436.98
2018-11-23T14:20:04.114Z,102437.73
2018-11-23T14:22:32.437Z,102437.98
2018-11-23T14:25:00.764Z,102429.43
2018-11-23T14:27:29.090Z,102428.89
2018-11-23T14:29:57.435Z,102425.33
2018-11-23T14:32:25.775Z,102428.23
2018-11-23T14:34:54.098Z,102428.43
2018-11-23T14:37:22.535Z,102425.45
2018-11-23T14:39:50.868Z,102429.19
2018-11-23T14:42:18.617Z,102430.78
2018-11-23T14:44:46.947Z,102434.42
2018-11-23T14:47:15.276Z,102428.91
2018-11-23T14:49:44.584Z,102426.08
2018-11-23T14:52:12.371Z,102420.18
2018-11-23T14:54:42.870Z,102423.78
2018-11-23T14:57:09.492Z,102422.46
2018-11-23T14:59:37.831Z,102422.03
2018-11-23T15:02:07.101Z,102416.73
2018-11-23T15:04:35.966Z,102414.38
2018-11-23T15:07:04.516Z,102410.23
2018-11-23T15:09:32.617Z,102407.42
2018-11-23T15:12:00.954Z,102397.88
2018-11-23T15:14:28.706Z,102397.16
2018-11-23T15:16:57.620Z,102397.61
2018-11-23T15:19:25.361Z,102392.34
2018-11-23T15:21:54.270Z,102386.03
2018-11-23T15:24:22.601Z,102385.28
2018-11-23T15:26:50.928Z,102374.22
2018-11-23T15:29:19.280Z,102371.80
2018-11-23T15:31:47.611Z,102369.47
2018-11-23T15:34:15.951Z,102370.18
2018-11-23T15:36:43.689Z,102370.55
2018-11-23T15:39:12.632Z,102365.17
2018-11-23T15:41:40.384Z,102360.42
2018-11-23T15:44:09.303Z,102359.29
2018-11-23T15:46:37.939Z,102358.36
2018-11-23T15:49:05.733Z,102356.25
2018-11-23T15:51:35.623Z,102357.14
2018-11-23T15:54:03.365Z,102358.06
2018-11-23T15:56:31.723Z,102354.92
2018-11-23T15:59:00.633Z,102347.81
2018-11-23T16:01:28.957Z,102340.75
2018-11-23T16:03:57.329Z,102341.30
2018-11-23T16:06:26.301Z,102336.86
2018-11-23T16:08:54.046Z,102336.04
2018-11-23T16:11:22.947Z,102336.51
2018-11-23T16:13:50.690Z,102333.09
2018-11-23T16:16:19.622Z,102330.69
2018-11-23T16:18:47.773Z,102328.47
2018-11-23T16:21:17.102Z,102323.98
2018-11-23T16:23:45.439Z,102324.74
2018-11-23T16:26:14.806Z,102320.27
2018-11-23T16:28:43.102Z,102319.94
2018-11-23T16:31:11.428Z,102314.08
2018-11-23T16:33:40.078Z,102318.61
2018-11-23T16:36:07.961Z,102312.79
2018-11-23T16:38:36.836Z,102309.39
2018-11-23T16:41:05.125Z,102306.36
2018-11-23T16:43:33.466Z,102307.41
2018-11-23T16:46:01.792Z,102309.58
2018-11-23T16:48:30.322Z,102305.09
2018-11-23T16:50:58.732Z,102300.63
2018-11-23T16:53:27.459Z,102297.38
2018-11-23T16:55:56.394Z,102299.37
2018-11-23T16:58:25.081Z,102304.07
2018-11-23T17:00:53.609Z,102301.25
2018-11-23T17:03:22.323Z,102303.41
2018-11-23T17:05:51.353Z,102303.12
2018-11-23T17:08:20.449Z,102306.53
2018-11-23T17:10:48.296Z,102312.91
2018-11-23T17:13:17.821Z,102310.41
2018-11-23T17:15:47.610Z,102305.53
2018-11-23T17:18:15.691Z,102308.09
2018-11-23T17:20:44.159Z,102310.97
2018-11-23T17:23:12.691Z,102303.16
2018-11-23T17:25:40.796Z,102306.48
2018-11-23T17:28:11.682Z,102302.58
2018-11-23T17:30:41.513Z,102303.31
2018-11-23T17:33:10.371Z,102300.63
2018-11-23T17:35:38.676Z,102300.13
2018-11-23T17:38:06.427Z,102295.08
2018-11-23T17:40:35.822Z,102286.95
2018-11-23T17:43:04.173Z,102284.12
2018-11-23T17:45:32.763Z,102277.75
2018-11-23T17:48:01.121Z,102278.61
2018-11-23T17:50:29.931Z,102271.91
2018-11-23T17:52:58.273Z,102275.39
2018-11-23T17:55:26.895Z,102269.11
2018-11-23T17:57:54.624Z,102271.11
2018-11-23T18:00:26.519Z,102268.84
2018-11-23T18:02:53.492Z,102267.63
2018-11-23T18:05:21.732Z,102258.38
2018-11-23T18:07:50.666Z,102257.72
2018-11-23T18:10:19.227Z,102256.09
2018-11-23T18:12:47.697Z,102252.58
2018-11-23T18:15:16.370Z,102256.34
2018-11-23T18:17:44.123Z,102247.06
2018-11-23T18:20:13.031Z,102244.68
2018-11-23T18:22:41.461Z,102237.70
2018-11-23T18:25:09.181Z,102238.22
2018-11-23T18:27:38.099Z,102232.38
2018-11-23T18:30:06.631Z,102227.11
2018-11-23T18:32:35.365Z,102225.48
2018-11-23T18:35:03.756Z,102223.33
2018-11-23T18:37:32.799Z,102217.91
2018-11-23T18:40:01.126Z,102214.84
2018-11-23T18:42:29.454Z,102211.84
2018-11-23T18:45:04.446Z,102210.35
2018-11-23T18:47:32.805Z,102205.66
2018-11-23T18:50:01.215Z,102204.41
2018-11-23T18:52:28.961Z,102196.53
2018-11-23T18:54:57.285Z,102192.92
2018-11-23T18:57:25.654Z,102195.88
2018-11-23T18:59:54.548Z,102194.25
2018-11-23T19:02:22.923Z,102191.30
2018-11-23T19:04:50.988Z,102193.95
2018-11-23T19:07:20.156Z,102190.21
2018-11-23T19:09:48.796Z,102181.16
2018-11-23T19:12:16.540Z,102175.10
2018-11-23T19:14:45.603Z,102170.02
2018-11-23T19:17:15.207Z,102166.88
2018-11-23T19:19:43.560Z,102167.79
2018-11-23T19:22:11.919Z,102163.61
2018-11-23T19:24:39.854Z,102159.54
2018-11-23T19:27:08.769Z,102151.27
2018-11-23T19:29:36.660Z,102147.12
2018-11-23T19:32:05.513Z,102151.56
2018-11-23T19:34:33.838Z,102145.26
2018-11-23T19:37:01.754Z,102143.13
2018-11-23T19:39:30.647Z,102137.33
2018-11-23T19:41:58.438Z,102138.33
2018-11-23T19:44:28.254Z,102141.05
2018-11-23T19:46:57.110Z,102141.91
2018-11-23T19:49:26.343Z,102136.33
2018-11-23T19:51:54.096Z,102136.40
2018-11-23T19:54:23.483Z,102136.42
2018-11-23T19:56:51.865Z,102132.39
2018-11-23T19:59:20.412Z,102131.11
2018-11-23T20:01:48.716Z,102127.59
2018-11-23T20:04:17.454Z,102123.37
2018-11-23T20:06:47.148Z,102123.67
2018-11-23T20:09:16.252Z,102121.56
2018-11-23T20:11:44.742Z,102120.56
2018-11-23T20:14:14.546Z,102115.06
2018-11-23T20:16:42.873Z,102109.17
2018-11-23T20:19:12.009Z,102108.04
2018-11-23T20:21:40.244Z,102109.30
2018-11-23T20:24:09.130Z,102104.42
2018-11-23T20:26:37.920Z,102098.13
2018-11-23T20:29:06.665Z,102093.36
2018-11-23T20:31:36.415Z,102093.73
2018-11-23T20:34:06.337Z,102090.45
2018-11-23T20:36:36.182Z,102085.02
2018-11-23T20:39:05.022Z,102089.05
2018-11-23T20:41:33.949Z,102084.76
2018-11-23T20:44:02.821Z,102089.51
2018-11-23T20:46:31.444Z,102083.58
2018-11-23T20:49:00.786Z,102074.25
2018-11-23T20:51:29.413Z,102071.38
2018-11-23T20:53:57.971Z,102065.43
2018-11-23T20:56:27.280Z,102062.52
2018-11-23T20:58:56.615Z,102056.50
2018-11-23T21:01:25.197Z,102057.41
2018-11-23T21:03:53.720Z,102053.16
2018-11-23T21:06:21.988Z,102050.28
2018-11-23T21:08:51.928Z,102053.04
2018-11-23T21:11:20.578Z,102049.31
2018-11-23T21:13:49.672Z,102038.78
2018-11-23T21:16:17.814Z,102037.65
2018-11-23T21:18:46.953Z,102035.66
2018-11-23T21:21:15.317Z,102040.47
2018-11-23T21:23:43.902Z,102044.13
2018-11-23T21:26:12.287Z,102034.52
2018-11-23T21:28:40.798Z,102034.25
2018-11-23T21:31:10.075Z,102034.95
2018-11-23T21:33:38.444Z,102034.55
2018-11-23T21:36:08.200Z,102033.24
2018-11-23T21:38:36.206Z,102025.00
2018-11-23T21:41:05.649Z,102021.81
2018-11-23T21:43:33.257Z,102020.66
2018-11-23T21:46:02.864Z,102012.33
2018-11-23T21:48:31.331Z,102007.35
2018-11-23T21:50:59.664Z,102006.25
2018-11-23T21:53:28.387Z,102012.06
2018-11-23T21:55:56.964Z,102008.30
2018-11-23T21:58:26.290Z,101998.98
2018-11-23T22:00:54.633Z,101995.41
2018-11-23T22:03:24.373Z,101990.77
2018-11-23T22:05:51.594Z,101982.41
2018-11-23T22:08:19.776Z,101982.91
2018-11-23T22:10:50.226Z,101977.58
2018-11-23T22:13:18.401Z,101974.13
2018-11-23T22:15:46.786Z,101973.77
2018-11-23T22:18:15.290Z,101966.11
2018-11-23T22:20:43.646Z,101959.37
2018-11-23T22:23:12.266Z,101955.48
2018-11-23T22:25:40.651Z,101954.03
2018-11-23T22:28:08.463Z,101953.98
2018-11-23T22:30:37.541Z,101938.47
2018-11-23T22:33:05.271Z,101934.91
2018-11-23T22:35:34.249Z,101929.84
2018-11-23T22:38:02.996Z,101939.13
2018-11-23T22:40:30.904Z,101927.84
2018-11-23T22:42:59.948Z,101926.06
2018-11-23T22:45:28.456Z,101922.72
2018-11-23T22:47:56.298Z,101916.58
2018-11-23T22:50:26.282Z,101916.47
2018-11-23T22:52:54.023Z,101913.09
2018-11-23T22:55:22.831Z,101911.02
2018-11-23T22:57:51.796Z,101910.41
2018-11-23T23:00:20.745Z,101907.05
2018-11-23T23:02:49.914Z,101901.66
2018-11-23T23:05:19.316Z,101909.67
2018-11-23T23:07:48.245Z,101907.15
2018-11-23T23:10:17.268Z,101906.95
2018-11-23T23:12:45.663Z,101896.47
2018-11-23T23:15:14.569Z,101892.66
2018-11-23T23:17:43.990Z,101889.98
2018-11-23T23:20:12.305Z,101889.09
2018-11-23T23:22:41.500Z,101890.77
2018-11-23T23:25:10.191Z,101884.16
2018-11-23T23:27:38.545Z,101878.34
2018-11-23T23:30:06.314Z,101875.00
2018-11-23T23:32:35.566Z,101880.13
2018-11-23T23:35:03.956Z,101872.89
2018-11-23T23:37:33.147Z,101871.88
2018-11-23T23:40:02.304Z,101870.95
2018-11-23T23:42:31.550Z,101866.34
2018-11-23T23:45:00.521Z,101860.97
2018-11-23T23:47:31.516Z,101858.21
2018-11-23T23:50:00.139Z,101856.35
2018-11-23T23:52:28.568Z,101860.10
2018-11-23T23:54:57.536Z,101853.54
2018-11-23T23:57:25.898Z,101860.77
2018-11-23T23:59:54.601Z,101859.05
